Time;durP1;ratioP1;P1;durP2;ratioP2;P2;SDS_P1;SDS_P2;PMS_P1;PMS_P2;Temp;Humidity;BMP_temperature;BMP_pressure;BME280_temperature;BME280_humidity;BME280_pressure;Samples;Min_cycle;Max_cycle;Signal;HPM_P1;HPM_P2
2021/01/27 09:45:12;;;;;;;10.70;9.48;;;2.50;99.90;;;;;;10039253;29;20054;-96
2021/01/27 10:09:47;;;;;;;11.53;10.30;;;2.70;99.90;;;;;;10019838;29;20061;-95
2021/01/27 10:14:57;;;;;;;14.82;12.50;;;2.80;99.90;;;;;;10007722;29;20062;-95
2021/01/27 10:20:26;;;;;;;10.77;9.68;;;2.80;99.90;;;;;;10023491;29;20069;-96
2021/01/27 10:25:42;;;;;;;12.15;9.98;;;2.90;99.90;;;;;;9992943;29;20090;-95
2021/01/27 10:30:55;;;;;;;13.23;10.75;;;2.90;99.90;;;;;;9992588;29;20065;-94
2021/01/27 10:35:57;;;;;;;;;;;2.90;99.90;;;;;;10007940;29;20129;-95
2021/01/27 10:41:10;;;;;;;14.57;12.40;;;3.00;99.90;;;;;;10008033;29;19986;-95
2021/01/27 10:46:34;;;;;;;15.05;12.65;;;3.20;99.90;;;;;;10009661;29;20108;-95
2021/01/27 10:51:36;;;;;;;19.88;14.93;;;3.30;99.90;;;;;;9993284;29;20110;-95
2021/01/27 10:56:37;;;;;;;;;;;3.30;99.90;;;;;;9978180;29;20058;-95
2021/01/27 11:01:39;;;;;;;16.25;13.30;;;3.40;99.90;;;;;;10007889;29;19928;-95
2021/01/27 11:06:43;;;;;;;13.43;11.95;;;3.40;99.90;;;;;;9991143;29;20133;-93
2021/01/27 11:11:45;;;;;;;14.60;12.20;;;3.50;99.90;;;;;;9991919;29;20409;-94
2021/01/27 11:16:47;;;;;;;17.58;13.65;;;3.50;99.90;;;;;;10003665;29;20555;-94
2021/01/27 11:21:49;;;;;;;18.17;14.90;;;3.40;99.90;;;;;;10006283;29;20118;-94
2021/01/27 11:26:50;;;;;;;;;;;3.50;99.90;;;;;;9993133;29;20082;-93
2021/01/27 11:31:52;;;;;;;25.25;17.90;;;3.50;99.90;;;;;;10007162;29;20023;-95
2021/01/27 11:36:53;;;;;;;21.60;16.48;;;3.60;99.90;;;;;;9990953;29;20146;-94
2021/01/27 11:41:55;;;;;;;19.67;14.98;;;3.70;99.90;;;;;;9991285;29;20118;-94
2021/01/27 11:46:59;;;;;;;25.30;17.67;;;3.90;99.90;;;;;;10021331;29;20467;-96
2021/01/27 11:52:04;;;;;;;28.60;19.52;;;3.90;99.90;;;;;;10005768;29;20054;-94
2021/01/27 11:57:09;;;;;;;25.08;18.30;;;3.90;99.90;;;;;;10010823;29;20115;-96
2021/01/27 12:02:11;;;;;;;26.77;19.13;;;4.00;99.90;;;;;;10013211;29;20061;-94
2021/01/27 12:07:16;;;;;;;23.73;17.52;;;4.00;99.90;;;;;;10012696;29;20459;-94
2021/01/27 12:12:17;;;;;;;28.52;20.85;;;4.10;99.90;;;;;;9997533;29;20113;-94
2021/01/27 12:17:20;;;;;;;29.13;21.38;;;4.20;99.90;;;;;;10011977;29;20407;-94
2021/01/27 12:22:21;;;;;;;36.78;24.02;;;4.20;99.90;;;;;;9997147;29;20066;-93
2021/01/27 12:27:26;;;;;;;36.70;24.92;;;4.10;99.90;;;;;;9997563;29;20061;-94
2021/01/27 12:32:28;;;;;;;36.63;25.05;;;4.30;99.90;;;;;;9997808;29;20141;-93
2021/01/27 12:37:32;;;;;;;46.58;29.25;;;4.30;99.90;;;;;;9997597;29;20069;-93
2021/01/27 12:42:41;;;;;;;47.03;30.05;;;4.30;99.90;;;;;;10024526;29;20057;-94
2021/01/27 12:47:42;;;;;;;34.03;25.25;;;4.30;99.90;;;;;;9974476;29;20066;-94
2021/01/27 12:52:47;;;;;;;47.45;27.60;;;4.40;99.90;;;;;;9960427;29;20054;-96
2021/01/27 12:57:49;;;;;;;39.20;25.35;;;4.50;99.90;;;;;;9991487;29;20060;-94
2021/01/27 13:02:53;;;;;;;38.83;25.88;;;4.50;99.90;;;;;;10010278;29;20403;-95
2021/01/27 13:07:55;;;;;;;43.95;26.15;;;4.60;99.90;;;;;;10009194;29;20062;-94
2021/01/27 13:12:59;;;;;;;43.83;28.75;;;4.60;99.90;;;;;;10009763;29;20117;-94
2021/01/27 13:18:00;;;;;;;51.13;30.13;;;4.70;99.90;;;;;;9989125;29;20115;-94
2021/01/27 13:23:02;;;;;;;;;;;4.70;99.90;;;;;;9958401;29;20093;-93
2021/01/27 13:28:05;;;;;;;59.20;33.90;;;4.80;99.90;;;;;;9943292;29;20424;-94
2021/01/27 13:33:10;;;;;;;55.72;32.67;;;4.80;99.90;;;;;;9971759;29;20090;-94
2021/01/27 13:38:14;;;;;;;53.95;31.08;;;4.90;99.90;;;;;;9991028;29;20065;-93
2021/01/27 13:43:16;;;;;;;47.75;29.83;;;4.90;99.90;;;;;;9994720;29;20087;-95
2021/01/27 13:48:18;;;;;;;62.78;33.22;;;4.90;99.90;;;;;;10009313;29;20506;-96
2021/01/27 13:53:20;;;;;;;46.10;29.05;;;5.00;99.90;;;;;;10008284;29;20053;-95
2021/01/27 13:58:22;;;;;;;46.05;30.10;;;5.00;99.90;;;;;;9993517;29;20235;-96
2021/01/27 14:03:24;;;;;;;59.85;35.63;;;5.10;99.90;;;;;;10008901;29;20064;-95
2021/01/27 14:08:26;;;;;;;;;;;5.10;99.90;;;;;;9968267;29;20066;-95
2021/01/27 14:13:27;;;;;;;52.70;31.48;;;5.10;99.90;;;;;;9970719;29;19924;-94
2021/01/27 14:18:29;;;;;;;51.35;30.48;;;5.10;99.90;;;;;;9970206;29;20555;-95
2021/01/27 14:23:31;;;;;;;50.22;28.95;;;5.20;99.90;;;;;;9970390;29;20507;-96
2021/01/27 14:28:34;;;;;;;52.58;29.63;;;5.20;99.90;;;;;;9970807;29;20145;-95
2021/01/27 14:33:35;;;;;;;54.83;30.92;;;5.20;99.90;;;;;;9969934;29;20058;-95
2021/01/27 14:38:37;;;;;;;54.72;28.52;;;5.20;99.90;;;;;;9969149;29;20093;-95
2021/01/27 14:43:43;;;;;;;;;;;5.30;99.90;;;;;;9954850;29;20127;-95
2021/01/27 14:48:46;;;;;;;66.32;32.60;;;5.30;99.90;;;;;;9955666;29;19925;-94
2021/01/27 14:53:47;;;;;;;48.25;30.15;;;5.30;99.90;;;;;;9969259;29;20146;-94
2021/01/27 14:58:49;;;;;;;67.43;33.63;;;5.40;99.90;;;;;;9954939;29;20586;-94
2021/01/27 15:03:51;;;;;;;53.80;30.80;;;5.30;99.90;;;;;;9969980;29;20084;-95
2021/01/27 15:08:52;;;;;;;53.95;29.85;;;5.40;99.90;;;;;;9983991;29;20089;-95
2021/01/27 15:13:54;;;;;;;58.17;34.55;;;5.30;99.90;;;;;;9969256;29;20502;-94
2021/01/27 15:18:56;;;;;;;69.60;36.25;;;5.30;99.90;;;;;;9970716;29;20078;-94
2021/01/27 15:23:57;;;;;;;;;;;5.30;99.90;;;;;;9969564;29;20617;-95
2021/01/27 15:28:59;;;;;;;62.85;34.80;;;5.30;99.90;;;;;;9968666;29;20437;-95
2021/01/27 15:34:00;;;;;;;;;;;5.30;99.90;;;;;;9990510;29;20054;-94
2021/01/27 15:39:02;;;;;;;54.42;31.58;;;5.30;99.90;;;;;;9997383;29;19957;-94
2021/01/27 15:44:04;;;;;;;62.22;34.00;;;5.30;99.90;;;;;;9997627;29;20413;-94
2021/01/27 15:49:06;;;;;;;66.80;33.22;;;5.30;99.90;;;;;;9997727;29;20474;-94
2021/01/27 15:54:08;;;;;;;72.20;36.17;;;5.30;99.90;;;;;;10012742;29;20153;-95
2021/01/27 15:59:10;;;;;;;74.50;36.78;;;5.30;99.90;;;;;;10012906;29;20563;-95
2021/01/27 16:04:15;;;;;;;64.05;33.78;;;5.30;99.90;;;;;;10012080;29;20085;-95
2021/01/27 16:09:19;;;;;;;69.68;33.33;;;5.30;99.90;;;;;;10012683;29;20054;-95
2021/01/27 16:14:20;;;;;;;59.08;32.10;;;5.30;99.90;;;;;;9997012;29;20060;-94
2021/01/27 21:20:38;;;;;;;161.25;52.17;;;6.20;99.90;;;;;;10024745;29;20054;-96
2021/01/27 21:25:39;;;;;;;;;;;6.10;99.90;;;;;;9995583;29;20262;-95
2021/01/27 21:30:42;;;;;;;211.15;59.83;;;6.20;99.90;;;;;;9993781;29;19953;-94
2021/01/27 21:35:46;;;;;;;171.40;55.13;;;6.20;99.90;;;;;;10009664;29;20419;-95
2021/01/27 21:40:51;;;;;;;184.40;57.63;;;6.20;99.90;;;;;;9981315;29;20084;-96
2021/01/27 21:45:53;;;;;;;202.43;60.10;;;6.20;99.90;;;;;;9994265;29;20495;-95
2021/01/27 21:50:56;;;;;;;143.50;51.30;;;6.30;99.90;;;;;;9993947;29;20168;-95
2021/01/27 21:55:58;;;;;;;154.40;51.33;;;6.30;99.90;;;;;;9978726;29;20110;-96
2021/01/27 22:00:59;;;;;;;;;;;6.30;99.90;;;;;;9979463;29;20538;-96
2021/01/27 22:06:01;;;;;;;121.97;46.17;;;6.30;99.90;;;;;;10024443;29;19924;-96
2021/01/27 22:11:03;;;;;;;;;;;6.30;99.90;;;;;;10009491;29;20054;-96
